createdAt,value
2023-01-12T00:01:39.086Z,7.19
2023-01-12T00:04:06.676Z,7.22
2023-01-12T00:06:35.150Z,7.23
2023-01-12T00:09:03.971Z,7.24
2023-01-12T00:11:31.581Z,7.24
2023-01-12T00:13:59.340Z,7.19
2023-01-12T00:16:38.678Z,7.23
2023-01-12T00:19:10.870Z,7.17
2023-01-12T00:21:52.396Z,7.22
2023-01-12T00:24:20.590Z,7.24
2023-01-12T00:26:49.389Z,7.36
2023-01-12T00:29:17.617Z,7.24
2023-01-12T00:31:46.875Z,7.22
2023-01-12T00:34:16.652Z,7.29
2023-01-12T00:36:45.064Z,7.37
2023-01-12T00:39:12.656Z,7.39
2023-01-12T00:41:58.759Z,7.48
2023-01-12T00:44:44.062Z,7.43
2023-01-12T00:47:14.093Z,7.46
2023-01-12T00:49:41.989Z,7.39
2023-01-12T00:52:15.570Z,7.41
2023-01-12T00:54:49.110Z,7.43
2023-01-12T00:57:17.900Z,7.43
2023-01-12T00:59:45.553Z,7.46
2023-01-12T01:02:14.671Z,7.47
2023-01-12T01:04:42.321Z,7.52
2023-01-12T01:07:09.874Z,7.50
2023-01-12T01:09:37.414Z,7.65
2023-01-12T01:12:05.095Z,7.59
2023-01-12T01:14:32.843Z,7.54
2023-01-12T01:17:00.323Z,7.59
2023-01-12T01:19:29.159Z,7.58
2023-01-12T01:21:56.728Z,7.59
2023-01-12T01:24:24.549Z,7.63
2023-01-12T01:26:52.406Z,6.83
2023-01-12T01:29:19.952Z,6.10
2023-01-12T01:31:48.370Z,5.89
2023-01-12T01:34:15.937Z,5.72
2023-01-12T01:36:44.763Z,5.60
2023-01-12T01:39:13.381Z,5.57
2023-01-12T01:41:43.465Z,5.62
2023-01-12T01:44:43.647Z,5.64
2023-01-12T01:47:22.237Z,5.75
2023-01-12T01:49:52.396Z,5.96
2023-01-12T01:52:25.766Z,6.08
2023-01-12T01:54:58.031Z,6.16
2023-01-12T01:57:31.285Z,6.21
2023-01-12T02:00:00.689Z,6.12
2023-01-12T02:02:28.492Z,6.19
2023-01-12T02:04:57.365Z,6.26
2023-01-12T02:07:26.290Z,6.22
2023-01-12T02:09:53.797Z,6.24
2023-01-12T02:12:38.876Z,6.25
2023-01-12T02:15:25.301Z,6.27
2023-01-12T02:18:10.453Z,6.30
2023-01-12T02:20:48.320Z,6.31
2023-01-12T02:23:46.123Z,6.38
2023-01-12T02:26:36.685Z,6.37
2023-01-12T02:29:40.064Z,6.36
2023-01-12T02:32:19.417Z,6.41
2023-01-12T02:34:56.755Z,6.47
2023-01-12T02:37:33.419Z,6.53
2023-01-12T02:40:07.049Z,6.60
2023-01-12T02:42:43.838Z,6.74
2023-01-12T02:45:33.253Z,6.91
2023-01-12T02:48:09.031Z,7.01
2023-01-12T02:50:45.116Z,7.00
2023-01-12T02:53:18.834Z,7.15
2023-01-12T02:55:48.551Z,7.16
2023-01-12T02:58:19.723Z,7.19
2023-01-12T03:00:52.301Z,7.20
2023-01-12T03:05:56.784Z,7.24
2023-01-12T03:08:28.589Z,7.29
2023-01-12T03:11:04.849Z,7.29
2023-01-12T03:13:36.032Z,7.36
2023-01-12T03:16:06.158Z,7.32
2023-01-12T03:18:39.274Z,7.34
2023-01-12T03:21:10.467Z,7.38
2023-01-12T03:23:43.946Z,7.37
2023-01-12T03:26:15.473Z,7.45
2023-01-12T03:28:47.558Z,7.56
2023-01-12T03:31:15.480Z,7.53
2023-01-12T03:33:46.283Z,7.50
2023-01-12T03:36:20.241Z,7.48
2023-01-12T03:38:59.403Z,7.59
2023-01-12T03:41:36.164Z,7.52
2023-01-12T03:44:06.449Z,7.46
2023-01-12T03:46:40.525Z,7.47
2023-01-12T03:49:16.199Z,7.53
2023-01-12T03:51:48.779Z,7.59
2023-01-12T03:54:18.349Z,7.62
2023-01-12T03:56:47.309Z,7.63
2023-01-12T03:59:15.386Z,7.55
2023-01-12T04:01:43.248Z,7.54
2023-01-12T04:04:12.248Z,7.53
2023-01-12T04:06:39.759Z,7.47
2023-01-12T04:09:07.494Z,7.46
2023-01-12T04:11:52.728Z,7.52
2023-01-12T04:14:20.305Z,7.52
2023-01-12T04:16:47.851Z,7.53
2023-01-12T04:19:16.766Z,7.51
2023-01-12T04:22:02.358Z,7.45
2023-01-12T04:24:29.928Z,7.52
2023-01-12T04:26:57.503Z,7.58
2023-01-12T04:29:25.111Z,7.65
2023-01-12T04:31:52.713Z,7.51
2023-01-12T04:34:21.662Z,7.55
2023-01-12T04:36:49.190Z,7.55
2023-01-12T04:39:16.783Z,7.67
2023-01-12T04:41:44.366Z,7.64
2023-01-12T04:44:12.114Z,7.67
2023-01-12T04:46:40.686Z,7.70
2023-01-12T04:49:08.383Z,7.61
2023-01-12T04:51:37.267Z,7.59
2023-01-12T04:54:04.831Z,7.58
2023-01-12T04:56:32.589Z,7.57
2023-01-12T04:59:01.051Z,7.59
2023-01-12T05:01:29.992Z,7.55
2023-01-12T05:04:00.511Z,7.51
2023-01-12T05:06:28.779Z,7.55
2023-01-12T05:09:15.369Z,7.59
2023-01-12T05:11:42.899Z,7.68
2023-01-12T05:14:10.468Z,7.60
2023-01-12T05:16:38.726Z,7.56
2023-01-12T05:19:06.357Z,7.56
2023-01-12T05:21:33.864Z,7.59
2023-01-12T05:24:02.842Z,7.58
2023-01-12T05:26:30.362Z,7.58
2023-01-12T05:28:57.937Z,7.59
2023-01-12T05:31:25.512Z,7.56
2023-01-12T05:33:53.069Z,7.50
2023-01-12T05:36:21.294Z,7.46
2023-01-12T05:38:48.846Z,7.42
2023-01-12T05:41:17.791Z,7.40
2023-01-12T05:43:50.340Z,7.40
2023-01-12T05:46:19.719Z,7.39
2023-01-12T05:48:47.921Z,7.39
2023-01-12T05:51:15.761Z,7.35
2023-01-12T05:53:43.886Z,7.38
2023-01-12T05:56:19.064Z,7.38
2023-01-12T05:58:51.255Z,7.35
2023-01-12T06:01:18.902Z,7.37
2023-01-12T06:03:49.920Z,7.37
2023-01-12T06:06:17.709Z,7.41
2023-01-12T06:08:45.439Z,7.45
2023-01-12T06:11:33.041Z,7.43
2023-01-12T06:14:01.395Z,7.46
2023-01-12T06:16:30.064Z,7.47
2023-01-12T06:18:57.726Z,7.51
2023-01-12T06:21:26.174Z,7.53
2023-01-12T06:23:53.782Z,7.50
2023-01-12T06:26:21.508Z,7.49
2023-01-12T06:28:49.174Z,7.46
2023-01-12T06:31:18.156Z,7.48
2023-01-12T06:33:45.715Z,7.48
2023-01-12T06:36:13.629Z,7.47
2023-01-12T06:38:41.722Z,7.48
2023-01-12T06:41:32.311Z,7.54
2023-01-12T06:44:00.350Z,7.64
2023-01-12T06:46:29.644Z,7.56
2023-01-12T06:48:58.094Z,7.59
2023-01-12T06:51:26.249Z,7.63
2023-01-12T06:53:54.339Z,7.63
2023-01-12T06:56:22.097Z,7.67
2023-01-12T06:58:49.829Z,7.66
2023-01-12T07:01:17.600Z,7.72
2023-01-12T07:03:46.849Z,7.72
2023-01-12T07:06:14.917Z,7.70
2023-01-12T07:08:43.207Z,7.70
2023-01-12T07:11:12.574Z,7.71
2023-01-12T07:13:40.281Z,7.72
2023-01-12T07:16:08.707Z,7.68
2023-01-12T07:18:36.686Z,7.71
2023-01-12T07:21:10.410Z,7.67
2023-01-12T07:23:38.498Z,7.69
2023-01-12T07:26:06.470Z,7.73
2023-01-12T07:28:34.414Z,7.73
2023-01-12T07:31:02.901Z,7.73
2023-01-12T07:33:30.996Z,7.78
2023-01-12T07:35:59.746Z,7.82
2023-01-12T07:38:30.498Z,7.84
2023-01-12T07:40:59.218Z,7.84
2023-01-12T07:43:27.098Z,7.81
2023-01-12T07:45:57.015Z,7.85
2023-01-12T07:48:26.636Z,7.78
2023-01-12T07:50:54.334Z,7.79
2023-01-12T07:53:21.898Z,7.83
2023-01-12T07:55:50.782Z,7.82
2023-01-12T07:58:18.351Z,7.83
2023-01-12T08:00:46.011Z,7.87
2023-01-12T08:03:15.066Z,7.88
2023-01-12T08:05:42.916Z,7.87
2023-01-12T08:08:10.473Z,7.88
2023-01-12T08:10:38.208Z,7.82
2023-01-12T08:13:07.070Z,7.84
2023-01-12T08:15:39.152Z,7.86
2023-01-12T08:18:10.912Z,7.88
2023-01-12T08:20:38.628Z,7.88
2023-01-12T08:23:11.894Z,7.81
2023-01-12T08:25:44.674Z,7.79
2023-01-12T08:28:18.336Z,7.77
2023-01-12T08:30:47.735Z,7.76
2023-01-12T08:33:16.288Z,7.79
2023-01-12T08:35:46.193Z,7.72
2023-01-12T08:38:14.231Z,7.75
2023-01-12T08:40:59.451Z,7.67
2023-01-12T08:43:46.059Z,7.69
2023-01-12T08:46:13.801Z,7.69
2023-01-12T08:48:41.332Z,7.67
2023-01-12T08:51:09.273Z,7.67
2023-01-12T08:53:36.878Z,7.65
2023-01-12T08:56:04.785Z,7.65
2023-01-12T08:58:33.696Z,7.70
2023-01-12T09:01:08.117Z,7.69
2023-01-12T09:03:35.813Z,7.63
2023-01-12T09:06:10.311Z,7.69
2023-01-12T09:08:37.865Z,7.70
2023-01-12T09:11:06.786Z,7.75
2023-01-12T09:13:36.074Z,7.77
2023-01-12T09:16:12.157Z,7.84
2023-01-12T09:18:41.227Z,7.77
2023-01-12T09:21:11.209Z,7.83
2023-01-12T09:23:39.287Z,7.84
2023-01-12T09:26:08.236Z,7.82
2023-01-12T09:28:37.708Z,7.93
2023-01-12T09:31:07.148Z,7.97
2023-01-12T09:33:35.180Z,7.88
2023-01-12T09:36:03.980Z,7.97
2023-01-12T09:38:31.968Z,7.94
2023-01-12T09:41:02.872Z,7.97
2023-01-12T09:43:47.910Z,8.00
2023-01-12T09:46:38.863Z,8.08
2023-01-12T09:49:07.573Z,8.15
2023-01-12T09:51:37.665Z,8.19
2023-01-12T09:54:06.993Z,8.19
2023-01-12T09:56:39.929Z,8.24
2023-01-12T09:59:20.583Z,8.30
2023-01-12T10:01:52.677Z,8.30
2023-01-12T10:04:20.939Z,8.24
2023-01-12T10:06:48.499Z,8.35
2023-01-12T10:09:19.209Z,8.31
2023-01-12T10:11:55.444Z,8.32
2023-01-12T10:14:40.308Z,8.38
2023-01-12T10:17:23.731Z,8.41
2023-01-12T10:19:58.909Z,8.43
2023-01-12T10:22:38.892Z,8.53
2023-01-12T10:25:17.451Z,8.50
2023-01-12T10:27:46.950Z,8.54
2023-01-12T10:30:18.004Z,8.52
2023-01-12T10:32:46.990Z,8.53
2023-01-12T10:35:16.713Z,8.56
2023-01-12T10:37:45.606Z,8.63
2023-01-12T10:40:24.788Z,8.69
2023-01-12T10:43:21.821Z,8.71
2023-01-12T10:46:05.940Z,8.68
2023-01-12T10:48:34.906Z,8.75
2023-01-12T10:51:05.180Z,8.83
2023-01-12T10:53:38.659Z,8.87
2023-01-12T10:56:15.566Z,8.83
2023-01-12T10:58:47.914Z,8.92
2023-01-12T11:01:15.790Z,8.88
2023-01-12T11:03:44.806Z,8.97
2023-01-12T11:06:27.081Z,8.94
2023-01-12T11:08:56.051Z,8.92
2023-01-12T11:11:29.028Z,8.93
2023-01-12T11:13:58.469Z,9.01
2023-01-12T11:16:31.693Z,9.07
2023-01-12T11:19:16.599Z,9.06
2023-01-12T11:21:49.944Z,9.09
2023-01-12T11:24:33.806Z,9.19
2023-01-12T11:27:09.664Z,9.17
2023-01-12T11:29:44.408Z,9.22
2023-01-12T11:32:17.643Z,9.21
2023-01-12T11:34:56.172Z,9.35
2023-01-12T11:37:25.031Z,9.34
2023-01-12T11:40:01.143Z,9.44
2023-01-12T11:42:49.499Z,9.44
2023-01-12T11:45:22.829Z,9.52
2023-01-12T11:47:55.378Z,9.54
2023-01-12T11:50:28.800Z,9.47
2023-01-12T11:52:57.808Z,9.49
2023-01-12T11:55:49.943Z,9.52
2023-01-12T11:58:26.021Z,9.49
2023-01-12T12:01:06.366Z,9.47
2023-01-12T12:03:51.013Z,9.46
2023-01-12T12:06:35.163Z,9.49
2023-01-12T12:09:14.043Z,9.54
2023-01-12T12:11:50.516Z,9.53
2023-01-12T12:14:31.003Z,9.52
2023-01-12T12:17:04.432Z,9.57
2023-01-12T12:19:45.566Z,9.60
2023-01-12T12:22:28.184Z,9.77
2023-01-12T12:25:14.736Z,9.72
2023-01-12T12:28:07.607Z,9.89
2023-01-12T12:30:57.720Z,9.99
2023-01-12T12:33:44.350Z,10.10
2023-01-12T12:36:19.329Z,10.10
2023-01-12T12:39:20.960Z,10.18
2023-01-12T12:42:18.166Z,10.21
2023-01-12T12:45:10.686Z,10.18
2023-01-12T12:47:50.581Z,10.25
2023-01-12T12:50:21.956Z,10.28
2023-01-12T12:53:01.415Z,10.22
2023-01-12T12:55:31.387Z,10.20
2023-01-12T12:58:00.807Z,10.12
2023-01-12T13:00:36.504Z,10.12
2023-01-12T13:03:04.401Z,10.09
2023-01-12T13:05:44.173Z,10.03
2023-01-12T13:08:20.964Z,9.95
2023-01-12T13:10:52.789Z,9.93
2023-01-12T13:13:32.225Z,9.91
2023-01-12T13:16:45.685Z,9.87
2023-01-12T13:19:16.657Z,9.89
2023-01-12T13:21:57.843Z,9.91
2023-01-12T13:24:41.219Z,9.97
2023-01-12T13:27:50.480Z,9.95
2023-01-12T13:30:24.170Z,9.94
2023-01-12T13:32:58.989Z,9.96
2023-01-12T13:35:46.201Z,9.92
2023-01-12T13:38:19.639Z,9.87
2023-01-12T13:40:55.966Z,9.90
2023-01-12T13:43:27.671Z,9.91
2023-01-12T13:45:59.436Z,9.91
2023-01-12T13:48:28.576Z,9.89
2023-01-12T13:50:59.849Z,9.88
2023-01-12T13:53:29.300Z,9.88
2023-01-12T13:55:59.471Z,9.85
2023-01-12T13:58:30.077Z,9.87
2023-01-12T14:00:59.593Z,9.87
2023-01-12T14:03:45.851Z,9.89
2023-01-12T14:06:23.807Z,9.86
2023-01-12T14:09:00.837Z,9.84
2023-01-12T14:12:08.804Z,9.85
2023-01-12T14:15:12.882Z,9.89
2023-01-12T14:17:57.366Z,9.82
2023-01-12T14:20:26.648Z,9.87
2023-01-12T14:23:13.593Z,9.87
2023-01-12T14:25:41.771Z,9.84
2023-01-12T14:28:17.012Z,9.82
2023-01-12T14:30:49.457Z,9.83
2023-01-12T14:33:21.867Z,9.84
2023-01-12T14:35:54.569Z,9.86
2023-01-12T14:38:25.279Z,9.83
2023-01-12T14:40:59.264Z,9.83
2023-01-12T14:43:45.338Z,9.83
2023-01-12T14:46:27.872Z,9.77
2023-01-12T14:48:57.747Z,9.78
2023-01-12T14:51:27.582Z,9.78
2023-01-12T14:54:01.524Z,9.81
2023-01-12T14:56:35.423Z,9.85
2023-01-12T14:59:08.432Z,9.90
2023-01-12T15:01:39.406Z,9.87
2023-01-12T15:04:15.037Z,9.78
2023-01-12T15:06:44.665Z,9.71
2023-01-12T15:09:26.805Z,9.62
2023-01-12T15:11:54.395Z,9.47
2023-01-12T15:14:25.894Z,9.48
2023-01-12T15:17:13.207Z,9.38
2023-01-12T15:19:58.653Z,9.42
2023-01-12T15:22:45.438Z,9.33
2023-01-12T15:25:32.312Z,9.39
2023-01-12T15:27:59.947Z,9.37
2023-01-12T15:30:27.755Z,9.32
2023-01-12T15:32:56.617Z,9.35
2023-01-12T15:35:27.243Z,9.33
2023-01-12T15:37:56.367Z,9.35
2023-01-12T15:40:25.361Z,9.30
2023-01-12T15:42:53.913Z,9.22
2023-01-12T15:45:30.347Z,9.30
2023-01-12T15:47:59.240Z,9.24
2023-01-12T15:50:26.998Z,9.24
2023-01-12T15:52:54.588Z,9.28
2023-01-12T15:55:23.531Z,9.30
2023-01-12T15:57:52.140Z,9.33
2023-01-12T16:00:21.949Z,9.40
2023-01-12T16:02:51.079Z,9.36
2023-01-12T16:05:22.005Z,9.36
2023-01-12T16:07:49.849Z,9.39
2023-01-12T16:10:18.670Z,9.39
2023-01-12T16:12:47.782Z,9.42
2023-01-12T16:15:18.058Z,9.43
2023-01-12T16:17:45.825Z,9.46
2023-01-12T16:20:16.085Z,9.45
2023-01-12T16:22:46.469Z,9.46
2023-01-12T16:25:15.113Z,9.51
2023-01-12T16:27:42.698Z,9.48
2023-01-12T16:30:14.781Z,9.54
2023-01-12T16:32:46.229Z,9.58
2023-01-12T16:35:15.481Z,9.58
2023-01-12T16:37:43.479Z,9.53
2023-01-12T16:40:13.689Z,9.55
2023-01-12T16:42:41.259Z,9.57
2023-01-12T16:45:09.674Z,9.48
2023-01-12T16:47:37.284Z,9.51
2023-01-12T16:50:05.478Z,9.55
2023-01-12T16:52:33.011Z,9.57
2023-01-12T16:55:00.539Z,9.59
2023-01-12T16:57:29.395Z,9.64
2023-01-12T16:59:56.900Z,9.66
2023-01-12T17:02:24.743Z,9.73
2023-01-12T17:04:53.107Z,9.72
2023-01-12T17:07:21.011Z,9.88
2023-01-12T17:09:48.664Z,9.88
2023-01-12T17:12:16.540Z,9.89
2023-01-12T17:14:45.553Z,9.86
2023-01-12T17:17:13.732Z,9.86
2023-01-12T17:19:43.414Z,9.85
2023-01-12T17:22:12.745Z,9.86
2023-01-12T17:24:41.642Z,9.89
2023-01-12T17:27:11.035Z,9.92
2023-01-12T17:29:39.015Z,9.92
2023-01-12T17:32:08.346Z,9.90
2023-01-12T17:34:37.689Z,9.87
2023-01-12T17:37:08.199Z,9.89
2023-01-12T17:39:36.739Z,9.87
2023-01-12T17:42:22.441Z,9.90
2023-01-12T17:44:50.009Z,9.92
2023-01-12T17:47:19.110Z,10.00
2023-01-12T17:49:47.692Z,9.92
2023-01-12T17:52:15.238Z,9.97
2023-01-12T17:54:43.003Z,9.95
2023-01-12T17:57:10.746Z,10.06
2023-01-12T17:59:38.358Z,10.03
2023-01-12T18:02:07.105Z,9.94
2023-01-12T18:04:36.043Z,9.98
2023-01-12T18:07:04.637Z,9.90
2023-01-12T18:09:32.256Z,9.90
2023-01-12T18:12:00.183Z,9.96
2023-01-12T18:14:27.942Z,9.88
2023-01-12T18:16:55.512Z,9.86
2023-01-12T18:19:23.070Z,9.83
2023-01-12T18:21:52.026Z,9.93
2023-01-12T18:24:19.588Z,9.88
2023-01-12T18:26:48.049Z,9.86
2023-01-12T18:29:15.614Z,9.86
2023-01-12T18:31:43.130Z,9.91
2023-01-12T18:34:11.453Z,9.80
2023-01-12T18:36:40.759Z,9.84
2023-01-12T18:39:15.951Z,9.86
2023-01-12T18:42:01.016Z,9.82
2023-01-12T18:44:28.905Z,9.92
2023-01-12T18:47:16.698Z,9.87
2023-01-12T18:49:45.691Z,9.90
2023-01-12T18:52:31.747Z,9.82
2023-01-12T18:55:00.632Z,9.77
2023-01-12T18:57:29.946Z,9.84
2023-01-12T19:00:00.351Z,9.79
2023-01-12T19:02:29.777Z,9.79
2023-01-12T19:05:19.841Z,9.80
2023-01-12T19:08:26.046Z,9.84
2023-01-12T19:10:55.441Z,9.84
2023-01-12T19:13:40.532Z,9.80
2023-01-12T19:16:25.918Z,9.79
2023-01-12T19:18:53.405Z,9.83
2023-01-12T19:21:38.820Z,9.82
2023-01-12T19:24:24.036Z,9.93
2023-01-12T19:27:10.692Z,9.93
2023-01-12T19:29:40.530Z,10.00
2023-01-12T19:32:08.683Z,9.98
2023-01-12T19:34:36.188Z,9.97
2023-01-12T19:37:03.749Z,9.93
2023-01-12T19:39:52.388Z,9.87
2023-01-12T19:42:46.573Z,9.91
2023-01-12T19:45:14.649Z,9.89
2023-01-12T19:47:42.233Z,9.95
2023-01-12T19:50:12.995Z,10.03
2023-01-12T19:52:42.185Z,10.00
2023-01-12T19:55:12.608Z,9.88
2023-01-12T19:57:42.882Z,9.93
2023-01-12T20:00:14.777Z,9.93
2023-01-12T20:02:42.662Z,9.93
2023-01-12T20:05:13.205Z,9.84
2023-01-12T20:07:41.033Z,9.95
2023-01-12T20:10:09.833Z,9.95
2023-01-12T20:12:37.386Z,9.85
2023-01-12T20:15:07.540Z,9.83
2023-01-12T20:17:36.030Z,9.86
2023-01-12T20:20:03.595Z,9.94
2023-01-12T20:22:31.167Z,9.97
2023-01-12T20:25:01.012Z,10.01
2023-01-12T20:27:28.521Z,9.92
2023-01-12T20:29:56.041Z,9.95
2023-01-12T20:32:25.008Z,9.95
2023-01-12T20:34:52.527Z,9.93
2023-01-12T20:37:20.122Z,9.94
2023-01-12T20:39:49.616Z,9.95
2023-01-12T20:42:17.124Z,10.04
2023-01-12T20:44:44.681Z,9.99
2023-01-12T20:47:12.231Z,9.98
2023-01-12T20:49:41.179Z,10.11
2023-01-12T20:52:08.834Z,10.05
2023-01-12T20:54:36.348Z,10.02
2023-01-12T20:57:04.122Z,10.04
2023-01-12T20:59:31.714Z,10.01
2023-01-12T21:01:59.404Z,10.00
2023-01-12T21:04:27.083Z,10.07
2023-01-12T21:06:55.909Z,10.04
2023-01-12T21:09:23.627Z,9.92
2023-01-12T21:11:51.308Z,9.95
2023-01-12T21:14:19.597Z,9.94
2023-01-12T21:16:47.421Z,10.04
2023-01-12T21:19:16.034Z,10.02
2023-01-12T21:21:43.568Z,9.96
2023-01-12T21:24:12.494Z,9.99
2023-01-12T21:26:40.062Z,9.98
2023-01-12T21:29:07.819Z,10.08
2023-01-12T21:31:35.476Z,10.03
2023-01-12T21:34:03.160Z,9.98
2023-01-12T21:36:30.915Z,10.12
2023-01-12T21:38:59.158Z,9.99
2023-01-12T21:41:27.980Z,10.03
2023-01-12T21:43:54.642Z,10.13
2023-01-12T21:46:22.675Z,10.12
2023-01-12T21:48:50.276Z,10.05
2023-01-12T21:51:18.576Z,10.03
2023-01-12T21:53:46.102Z,10.12
2023-01-12T21:56:14.364Z,10.06
2023-01-12T21:58:43.240Z,10.10
2023-01-12T22:01:12.137Z,10.06
2023-01-12T22:03:40.286Z,10.07
2023-01-12T22:06:09.923Z,10.08
2023-01-12T22:08:38.470Z,10.07
2023-01-12T22:11:08.309Z,10.05
2023-01-12T22:13:36.359Z,10.04
2023-01-12T22:16:08.918Z,10.10
2023-01-12T22:18:36.881Z,10.04
2023-01-12T22:21:06.519Z,10.19
2023-01-12T22:23:34.626Z,10.08
2023-01-12T22:26:03.213Z,10.07
2023-01-12T22:28:32.630Z,9.97
2023-01-12T22:31:00.314Z,9.94
2023-01-12T22:33:29.214Z,10.02
2023-01-12T22:35:56.787Z,10.06
2023-01-12T22:38:24.298Z,10.02
2023-01-12T22:40:51.845Z,9.97
2023-01-12T22:43:28.859Z,10.08
2023-01-12T22:45:57.833Z,10.03
2023-01-12T22:48:26.382Z,9.99
2023-01-12T22:50:55.595Z,10.03
2023-01-12T22:53:24.056Z,10.09
2023-01-12T22:55:52.115Z,10.04
2023-01-12T22:58:20.391Z,10.07
2023-01-12T23:00:48.629Z,10.18
2023-01-12T23:03:16.225Z,10.14
2023-01-12T23:05:48.993Z,10.07
2023-01-12T23:08:18.188Z,10.01
2023-01-12T23:10:45.791Z,10.07
2023-01-12T23:13:16.976Z,10.00
2023-01-12T23:15:47.888Z,10.19
2023-01-12T23:18:17.049Z,10.10
2023-01-12T23:20:45.853Z,10.04
2023-01-12T23:23:14.023Z,10.07
2023-01-12T23:25:44.312Z,10.09
2023-01-12T23:28:13.453Z,10.08
2023-01-12T23:30:42.027Z,10.05
2023-01-12T23:33:10.384Z,10.10
2023-01-12T23:35:39.525Z,10.11
2023-01-12T23:38:07.953Z,10.00
2023-01-12T23:40:35.475Z,10.09
2023-01-12T23:43:04.401Z,10.08
2023-01-12T23:45:33.780Z,10.10
2023-01-12T23:48:01.291Z,10.01
2023-01-12T23:50:28.796Z,10.04
2023-01-12T23:52:56.574Z,10.03
2023-01-12T23:55:25.845Z,10.00
2023-01-12T23:57:53.618Z,10.06
